Time;durP1;ratioP1;P1;durP2;ratioP2;P2;SDS_P1;SDS_P2;PMS_P1;PMS_P2;Temp;Humidity;BMP_temperature;BMP_pressure;BME280_temperature;BME280_humidity;BME280_pressure;Samples;Min_cycle;Max_cycle;Signal;HPM_P1;HPM_P2
2022/01/23 00:00:16;;;;;;;9.20;8.90;;;3.90;99.90;;;;;;5036488;28;20512;-84
2022/01/23 00:02:43;;;;;;;9.20;8.90;;;3.90;99.90;;;;;;5019916;28;20266;-85
2022/01/23 00:05:12;;;;;;;9.30;9.00;;;3.90;99.90;;;;;;5015571;28;20228;-84
2022/01/23 00:07:42;;;;;;;9.53;9.23;;;4.00;99.90;;;;;;5033801;28;20227;-85
2022/01/23 00:10:12;;;;;;;9.40;9.10;;;3.90;99.90;;;;;;5034614;28;20707;-85
2022/01/23 00:12:46;;;;;;;9.80;9.50;;;3.90;99.90;;;;;;5034406;28;20920;-85
2022/01/23 00:18:00;;;;;;;9.40;9.10;;;4.00;99.90;;;;;;5039410;28;20221;-85
2022/01/23 00:20:28;;;;;;;9.30;9.00;;;4.00;99.90;;;;;;5038048;28;20289;-85
2022/01/23 00:23:02;;;;;;;9.23;8.93;;;4.00;99.90;;;;;;5038778;28;20258;-85
2022/01/23 00:31:00;;;;;;;9.50;9.20;;;4.00;99.90;;;;;;5042981;28;20227;-84
2022/01/23 00:33:28;;;;;;;9.60;9.30;;;4.00;99.90;;;;;;5039534;28;20248;-84
2022/01/23 00:35:56;;;;;;;9.40;9.10;;;4.00;99.90;;;;;;5038300;28;20238;-85
2022/01/23 00:38:23;;;;;;;9.47;9.17;;;4.00;99.90;;;;;;5038181;28;20227;-84
2022/01/23 00:40:52;;;;;;;9.30;9.00;;;4.10;99.90;;;;;;5038753;28;20254;-85
2022/01/23 00:43:28;;;;;;;9.40;9.10;;;4.00;99.90;;;;;;5039334;28;20224;-85
2022/01/23 00:46:09;;;;;;;9.50;9.20;;;4.10;99.90;;;;;;5039035;28;20251;-85
2022/01/23 00:48:42;;;;;;;9.60;9.30;;;4.00;99.90;;;;;;5039614;28;20231;-85
2022/01/23 00:51:10;;;;;;;9.40;9.10;;;4.10;99.90;;;;;;5097214;22;20227;-79
2022/01/23 00:53:39;;;;;;;9.70;9.40;;;4.10;99.90;;;;;;5057034;28;20241;-79
2022/01/23 00:56:09;;;;;;;9.57;9.27;;;4.00;99.90;;;;;;5055771;28;20274;-79
2022/01/23 00:58:38;;;;;;;9.47;9.17;;;4.00;99.90;;;;;;5049926;28;20216;-79
2022/01/23 01:01:10;;;;;;;9.60;9.30;;;3.90;99.90;;;;;;5048768;28;20974;-80
2022/01/23 01:03:39;;;;;;;9.50;9.20;;;3.90;99.90;;;;;;5049350;28;20237;-80
2022/01/23 01:06:08;;;;;;;9.50;9.20;;;3.90;99.90;;;;;;5048832;28;20235;-80
2022/01/23 01:08:38;;;;;;;9.60;9.30;;;3.90;99.90;;;;;;5048688;28;20226;-80
2022/01/23 01:11:24;;;;;;;9.60;9.30;;;3.90;99.90;;;;;;5048282;28;20299;-80
2022/01/23 01:14:08;;;;;;;9.50;9.20;;;3.90;99.90;;;;;;5026798;28;20397;-80
2022/01/23 01:16:55;;;;;;;9.60;9.30;;;3.90;99.90;;;;;;5025581;28;20272;-80
2022/01/23 01:30:29;;;;;;;9.60;9.30;;;3.80;99.90;;;;;;5024856;28;20220;-80
2022/01/23 01:33:14;;;;;;;9.50;9.20;;;3.80;99.90;;;;;;5023792;28;20232;-80
2022/01/23 01:35:50;;;;;;;9.50;9.20;;;3.80;99.90;;;;;;5023560;28;20232;-80
2022/01/23 01:38:24;;;;;;;9.60;9.30;;;3.80;99.90;;;;;;5023834;28;20299;-80
2022/01/23 01:40:53;;;;;;;9.70;9.40;;;3.80;99.90;;;;;;5024017;28;20231;-80
2022/01/23 01:43:21;;;;;;;9.60;9.30;;;3.80;99.90;;;;;;5024432;28;20228;-80
2022/01/23 01:45:50;;;;;;;9.80;9.50;;;3.80;99.90;;;;;;5025246;28;20311;-80
2022/01/23 01:48:33;;;;;;;9.60;9.30;;;3.80;99.90;;;;;;5025259;28;20235;-80
2022/01/23 01:51:01;;;;;;;9.60;9.30;;;3.80;99.90;;;;;;5023415;28;20259;-80
2022/01/23 01:53:28;;;;;;;9.37;9.07;;;3.80;99.90;;;;;;5024168;28;20323;-80
2022/01/23 01:55:57;;;;;;;9.60;9.30;;;3.80;99.90;;;;;;5043423;28;20238;-80
2022/01/23 01:58:58;;;;;;;9.70;9.40;;;3.80;99.90;;;;;;5043438;28;20267;-81
2022/01/23 02:09:52;;;;;;;9.23;8.93;;;3.90;99.90;;;;;;5044250;28;20239;-79
2022/01/23 02:12:57;;;;;;;9.57;9.27;;;3.90;99.90;;;;;;5044661;28;20286;-79
2022/01/23 02:18:20;;;;;;;9.60;9.30;;;3.80;99.90;;;;;;5045178;28;20219;-79
2022/01/23 02:24:06;;;;;;;9.40;9.10;;;3.90;99.90;;;;;;5055174;28;20263;-80
2022/01/23 02:51:51;;;;;;;9.30;9.00;;;3.90;99.90;;;;;;5060042;28;20212;-79
2022/01/23 02:54:39;;;;;;;9.57;9.27;;;3.80;99.90;;;;;;5052049;28;20235;-79
2022/01/23 02:57:12;;;;;;;9.43;9.13;;;3.80;99.90;;;;;;5053343;28;20230;-79
2022/01/23 02:59:41;;;;;;;9.50;9.20;;;3.90;99.90;;;;;;5044248;28;20250;-79
2022/01/23 03:02:14;;;;;;;9.47;9.17;;;3.90;99.90;;;;;;5042218;28;20238;-79
2022/01/23 03:04:51;;;;;;;9.40;9.10;;;3.90;99.90;;;;;;5041343;28;20235;-80
2022/01/23 03:07:36;;;;;;;9.43;9.13;;;3.90;99.90;;;;;;5040985;28;20259;-79
2022/01/23 03:10:12;;;;;;;9.67;9.37;;;4.00;99.90;;;;;;5041476;28;20239;-79
2022/01/23 03:15:56;;;;;;;9.50;9.20;;;4.00;99.90;;;;;;5042068;28;20330;-79
2022/01/23 03:27:04;;;;;;;9.50;9.20;;;4.00;99.90;;;;;;5039670;28;20365;-79
2022/01/23 03:29:56;;;;;;;9.20;8.90;;;4.00;99.90;;;;;;5041629;28;20211;-79
2022/01/23 03:35:11;;;;;;;9.40;9.10;;;4.10;99.90;;;;;;5041575;28;20235;-79
2022/01/23 03:37:39;;;;;;;9.40;9.10;;;4.00;99.90;;;;;;5042430;28;20235;-79
2022/01/23 03:40:09;;;;;;;9.40;9.10;;;4.00;99.90;;;;;;5041820;28;20235;-79
2022/01/23 03:42:42;;;;;;;9.30;9.00;;;4.00;99.90;;;;;;5042230;28;20259;-79
2022/01/23 03:45:34;;;;;;;9.50;9.20;;;4.00;99.90;;;;;;5042114;28;20231;-79
2022/01/23 03:49:31;;;;;;;9.30;9.00;;;4.10;99.90;;;;;;5049097;28;20318;-79
2022/01/23 03:50:50;;;;;;;9.30;9.00;;;4.10;99.90;;;;;;5042739;28;20235;-79
2022/01/23 03:53:23;;;;;;;9.17;8.87;;;4.10;99.90;;;;;;5043559;28;20286;-79
2022/01/23 03:55:58;;;;;;;9.60;9.30;;;4.10;99.90;;;;;;5041598;28;20278;-79
2022/01/23 03:58:30;;;;;;;9.37;9.07;;;4.00;99.90;;;;;;5041994;28;20222;-79
2022/01/23 04:00:58;;;;;;;9.40;9.10;;;4.00;99.90;;;;;;5040559;28;20224;-79
2022/01/23 04:03:26;;;;;;;9.60;9.30;;;4.00;99.90;;;;;;5041776;28;20227;-79
2022/01/23 04:05:56;;;;;;;9.50;9.20;;;4.10;99.90;;;;;;5042139;28;20238;-79
2022/01/23 04:08:25;;;;;;;9.30;9.00;;;4.10;99.90;;;;;;5041570;28;20718;-79
2022/01/23 04:10:55;;;;;;;9.20;8.90;;;4.10;99.90;;;;;;5041904;28;20242;-79
2022/01/23 04:13:29;;;;;;;9.60;9.30;;;4.10;99.90;;;;;;5041584;28;20231;-79
2022/01/23 04:16:13;;;;;;;9.40;9.10;;;4.00;99.90;;;;;;5041834;28;20269;-79
2022/01/23 04:47:13;;;;;;;9.20;8.90;;;3.80;99.90;;;;;;5166110;27;20223;-79
2022/01/23 05:00:59;;;;;;;8.93;8.63;;;3.90;99.90;;;;;;5163091;27;20232;-79
2022/01/23 05:06:21;;;;;;;9.17;8.87;;;3.90;99.90;;;;;;5145453;27;20223;-79
2022/01/23 05:08:52;;;;;;;9.07;8.77;;;3.90;99.90;;;;;;5163453;27;20234;-79
2022/01/23 05:11:21;;;;;;;8.97;8.67;;;4.00;99.90;;;;;;5163122;27;20293;-79
2022/01/23 05:13:59;;;;;;;9.30;9.00;;;4.00;99.90;;;;;;5162073;27;20216;-79
2022/01/23 05:16:27;;;;;;;9.10;8.80;;;4.00;99.90;;;;;;5162099;27;20232;-79
2022/01/23 05:18:55;;;;;;;9.10;8.80;;;4.00;99.90;;;;;;5161411;27;20228;-79
2022/01/23 05:21:50;;;;;;;8.90;8.60;;;4.00;99.90;;;;;;5160742;27;20223;-79
2022/01/23 05:24:24;;;;;;;9.00;8.70;;;4.00;99.90;;;;;;5160863;27;20234;-79
2022/01/23 05:27:00;;;;;;;9.07;8.77;;;4.10;99.90;;;;;;5160949;27;20874;-79
2022/01/23 05:29:29;;;;;;;8.90;8.60;;;4.00;99.90;;;;;;5160771;27;20273;-79
2022/01/23 05:31:58;;;;;;;9.20;8.90;;;4.00;99.90;;;;;;5153042;27;20228;-80
2022/01/23 05:34:27;;;;;;;9.30;9.00;;;4.00;99.90;;;;;;5147328;27;20228;-80
2022/01/23 05:36:57;;;;;;;8.90;8.60;;;4.00;99.90;;;;;;5146899;27;20261;-80
2022/01/23 05:39:31;;;;;;;9.10;8.80;;;4.10;99.90;;;;;;5147766;27;20322;-80
2022/01/23 05:42:05;;;;;;;8.90;8.60;;;4.10;99.90;;;;;;5147528;27;20227;-80
2022/01/23 05:44:34;;;;;;;8.80;8.50;;;4.10;99.90;;;;;;5146808;27;20223;-80
2022/01/23 05:47:03;;;;;;;9.00;8.70;;;4.10;99.90;;;;;;5147445;27;20237;-80
2022/01/23 05:49:32;;;;;;;8.87;8.57;;;4.00;99.90;;;;;;5147744;27;20279;-80
2022/01/23 05:52:02;;;;;;;9.00;8.70;;;4.00;99.90;;;;;;5147414;27;20228;-80
2022/01/23 05:54:31;;;;;;;9.20;8.90;;;4.00;99.90;;;;;;5147080;27;20232;-80
2022/01/23 05:57:02;;;;;;;9.10;8.80;;;4.00;99.90;;;;;;5147228;27;20246;-80
2022/01/23 05:59:30;;;;;;;9.10;8.80;;;4.00;99.90;;;;;;5148211;27;20236;-80
2022/01/23 06:01:59;;;;;;;9.27;8.97;;;4.00;99.90;;;;;;5147146;27;20285;-80
2022/01/23 06:04:29;;;;;;;8.90;8.60;;;3.90;99.90;;;;;;5146798;27;20208;-80
2022/01/23 06:06:59;;;;;;;9.20;8.90;;;3.90;99.90;;;;;;5147266;27;20228;-80
2022/01/23 06:09:28;;;;;;;8.90;8.60;;;3.90;99.90;;;;;;5149054;27;20228;-80
2022/01/23 06:11:57;;;;;;;9.10;8.80;;;3.90;99.90;;;;;;5150961;27;20228;-81
2022/01/23 06:14:28;;;;;;;9.20;8.90;;;3.90;99.90;;;;;;5151231;27;20289;-80
2022/01/23 06:16:57;;;;;;;9.00;8.70;;;3.90;99.90;;;;;;5156102;27;20215;-79
2022/01/23 06:19:27;;;;;;;9.20;8.90;;;3.90;99.90;;;;;;5149732;27;20251;-80
2022/01/23 06:21:56;;;;;;;9.10;8.80;;;3.90;99.90;;;;;;5151425;27;20232;-80
2022/01/23 06:24:26;;;;;;;9.00;8.70;;;3.90;99.90;;;;;;5148683;27;20208;-80
2022/01/23 06:26:56;;;;;;;9.40;9.10;;;3.80;99.90;;;;;;5149020;27;20283;-80
2022/01/23 06:29:34;;;;;;;9.00;8.70;;;3.80;99.90;;;;;;5149345;27;20258;-80
2022/01/23 06:32:02;;;;;;;9.03;8.73;;;3.80;99.90;;;;;;5149302;27;20236;-80
2022/01/23 06:34:32;;;;;;;9.30;9.00;;;3.80;99.90;;;;;;5152054;27;20246;-79
2022/01/23 06:37:00;;;;;;;9.27;8.97;;;3.70;99.90;;;;;;5156484;27;20232;-80
2022/01/23 06:39:31;;;;;;;9.43;9.13;;;3.80;99.90;;;;;;5151236;27;20231;-80
2022/01/23 06:42:00;;;;;;;9.40;9.10;;;3.70;99.90;;;;;;5149242;27;20259;-80
2022/01/23 06:44:38;;;;;;;9.30;9.00;;;3.80;99.90;;;;;;5148191;27;20376;-80
2022/01/23 06:47:07;;;;;;;9.43;9.13;;;3.80;99.90;;;;;;5148987;27;20242;-80
2022/01/23 06:49:37;;;;;;;9.50;9.20;;;3.80;99.90;;;;;;5147773;27;20216;-80
2022/01/23 06:52:07;;;;;;;9.50;9.20;;;3.90;99.90;;;;;;5182058;22;20225;-85
2022/01/23 06:54:36;;;;;;;9.43;9.13;;;3.90;99.90;;;;;;5123799;28;20307;-86
2022/01/23 06:57:04;;;;;;;9.13;8.83;;;3.90;99.90;;;;;;5125347;28;20225;-85
2022/01/23 06:59:37;;;;;;;9.30;9.00;;;3.90;99.90;;;;;;5123755;28;20231;-85
2022/01/23 07:02:05;;;;;;;9.50;9.20;;;4.00;99.90;;;;;;5103014;28;20275;-85
2022/01/23 07:04:33;;;;;;;9.33;9.03;;;4.00;99.90;;;;;;5103711;28;20230;-85
2022/01/23 07:07:07;;;;;;;9.50;9.20;;;3.90;99.90;;;;;;5103043;28;20225;-85
2022/01/23 07:09:35;;;;;;;9.13;8.83;;;3.90;99.90;;;;;;5103654;28;20456;-85
2022/01/23 07:12:04;;;;;;;8.90;8.60;;;3.90;99.90;;;;;;5102988;28;20229;-85
2022/01/23 07:14:42;;;;;;;9.13;8.83;;;3.90;99.90;;;;;;5102780;28;20229;-85
2022/01/23 07:17:10;;;;;;;9.20;8.90;;;3.90;99.90;;;;;;5102699;28;20228;-85
2022/01/23 07:19:42;;;;;;;9.13;8.83;;;3.90;99.90;;;;;;5102709;28;20240;-85
2022/01/23 07:22:10;;;;;;;9.00;8.70;;;3.90;99.90;;;;;;5103059;28;20230;-85
2022/01/23 07:24:40;;;;;;;9.10;8.80;;;3.90;99.90;;;;;;5102794;28;20216;-85
2022/01/23 07:27:15;;;;;;;8.87;8.57;;;3.90;99.90;;;;;;5102953;28;20240;-86
2022/01/23 07:29:49;;;;;;;9.20;8.90;;;3.90;99.90;;;;;;5112667;28;20225;-85
2022/01/23 07:32:16;;;;;;;9.20;8.90;;;3.90;99.90;;;;;;5118069;28;20217;-84
2022/01/23 07:34:45;;;;;;;8.90;8.60;;;3.90;99.90;;;;;;5116257;28;20295;-84
2022/01/23 07:37:15;;;;;;;8.70;8.43;;;3.90;99.90;;;;;;5104164;28;20283;-84
2022/01/23 07:39:42;;;;;;;8.93;8.63;;;3.80;99.90;;;;;;5104622;28;20247;-84
2022/01/23 07:42:16;;;;;;;8.90;8.60;;;3.80;99.90;;;;;;5103925;28;20236;-84
2022/01/23 07:44:46;;;;;;;9.07;8.77;;;3.90;99.90;;;;;;5104337;28;20231;-84
2022/01/23 07:47:14;;;;;;;9.00;8.70;;;3.90;99.90;;;;;;5105703;28;20233;-84
2022/01/23 07:50:03;;;;;;;9.10;8.80;;;4.00;99.90;;;;;;5104527;28;20281;-84
2022/01/23 07:52:38;;;;;;;9.18;8.88;;;4.00;99.90;;;;;;5102098;28;20379;-84
2022/01/23 07:55:14;;;;;;;9.10;8.80;;;4.00;99.90;;;;;;5103284;28;20232;-84
2022/01/23 07:57:47;;;;;;;9.10;8.80;;;4.10;99.90;;;;;;5104880;28;20238;-83
2022/01/23 08:00:19;;;;;;;8.87;8.57;;;4.20;99.90;;;;;;5103042;28;20226;-84
2022/01/23 08:02:48;;;;;;;9.20;8.90;;;4.20;99.90;;;;;;5102643;28;20324;-84
2022/01/23 08:05:15;;;;;;;9.20;8.90;;;4.20;99.90;;;;;;5101354;28;20285;-84
2022/01/23 08:07:44;;;;;;;9.10;8.80;;;4.30;99.90;;;;;;5100769;28;20309;-85
2022/01/23 08:10:14;;;;;;;9.10;8.80;;;4.30;99.90;;;;;;5099131;28;20333;-83
2022/01/23 08:12:43;;;;;;;9.03;8.73;;;4.40;99.90;;;;;;5099499;28;21074;-84
2022/01/23 08:15:13;;;;;;;9.10;8.80;;;4.40;99.90;;;;;;5098864;28;20233;-84
2022/01/23 08:17:43;;;;;;;9.07;8.77;;;4.40;99.90;;;;;;5100335;28;20320;-84
2022/01/23 08:20:11;;;;;;;9.10;8.80;;;4.40;99.90;;;;;;5084942;28;20237;-84
2022/01/23 08:22:41;;;;;;;9.10;8.80;;;4.40;99.90;;;;;;5079641;28;20222;-83
2022/01/23 08:25:10;;;;;;;9.20;8.90;;;4.40;99.90;;;;;;5080045;28;20226;-83
2022/01/23 08:27:39;;;;;;;8.93;8.63;;;4.40;99.90;;;;;;5079945;28;20240;-83
2022/01/23 08:30:09;;;;;;;9.10;8.80;;;4.40;99.90;;;;;;5077936;28;20245;-84
2022/01/23 08:32:38;;;;;;;9.20;8.90;;;4.40;99.90;;;;;;5078021;28;20309;-84
2022/01/23 08:35:10;;;;;;;8.97;8.67;;;4.40;99.90;;;;;;5078394;28;20232;-85
2022/01/23 08:37:37;;;;;;;9.10;8.80;;;4.40;99.90;;;;;;5078255;28;20238;-84
2022/01/23 08:40:16;;;;;;;9.20;8.90;;;4.30;99.90;;;;;;5078863;28;20226;-84
2022/01/23 08:42:45;;;;;;;9.37;9.07;;;4.30;99.90;;;;;;5077558;28;20295;-84
2022/01/23 08:45:15;;;;;;;9.60;9.30;;;4.30;99.90;;;;;;5077419;28;20232;-84
2022/01/23 08:47:47;;;;;;;9.40;9.10;;;4.30;99.90;;;;;;5078308;28;20234;-84
2022/01/23 08:50:31;;;;;;;9.40;9.10;;;4.30;99.90;;;;;;5077725;28;20285;-84
2022/01/23 08:53:00;;;;;;;9.50;9.20;;;4.40;99.90;;;;;;5077665;28;20313;-84
2022/01/23 08:55:32;;;;;;;9.60;9.30;;;4.40;99.90;;;;;;5077840;28;20318;-85
2022/01/23 08:58:00;;;;;;;9.60;9.30;;;4.40;99.90;;;;;;5078872;28;20258;-84
2022/01/23 09:00:31;;;;;;;9.60;9.30;;;4.40;99.90;;;;;;5084508;28;20226;-85
2022/01/23 09:02:59;;;;;;;9.50;9.20;;;4.40;99.90;;;;;;5084617;28;20253;-84
2022/01/23 09:05:29;;;;;;;9.60;9.30;;;4.40;99.90;;;;;;5084621;28;20226;-84
2022/01/23 09:07:59;;;;;;;9.43;9.13;;;4.50;99.90;;;;;;5084239;28;20229;-85
2022/01/23 09:10:40;;;;;;;9.80;9.50;;;4.60;99.90;;;;;;5083513;28;20226;-87
2022/01/23 09:13:40;;;;;;;9.80;9.50;;;4.50;99.90;;;;;;5094923;28;20274;-85
2022/01/23 09:16:55;;;;;;;9.80;9.50;;;4.50;99.90;;;;;;5101879;28;20221;-85
2022/01/23 09:19:27;;;;;;;9.60;9.30;;;4.60;99.90;;;;;;5102134;28;20207;-85
2022/01/23 09:21:59;;;;;;;9.57;9.27;;;4.60;99.90;;;;;;5102054;28;20265;-85
2022/01/23 09:25:02;;;;;;;9.90;9.60;;;4.60;99.90;;;;;;5101916;28;20218;-84
2022/01/23 09:27:30;;;;;;;9.67;9.37;;;4.70;99.90;;;;;;5101079;28;20233;-84
2022/01/23 09:30:05;;;;;;;9.73;9.43;;;4.90;99.90;;;;;;5098316;28;20226;-85
2022/01/23 09:32:34;;;;;;;9.70;9.40;;;5.10;99.90;;;;;;5100560;28;20238;-82
2022/01/23 09:35:04;;;;;;;9.80;9.50;;;5.10;99.90;;;;;;5099347;28;20244;-84
2022/01/23 09:37:53;;;;;;;9.87;9.57;;;5.10;99.90;;;;;;5093661;28;20309;-85
2022/01/23 09:41:14;;;;;;;9.70;9.40;;;5.20;99.90;;;;;;5097108;28;20230;-86
2022/01/23 09:43:44;;;;;;;9.90;9.60;;;5.20;99.90;;;;;;5087189;28;20289;-83
2022/01/23 09:46:13;;;;;;;9.97;9.67;;;5.10;99.90;;;;;;5087081;28;20265;-84
2022/01/23 09:48:47;;;;;;;10.00;9.70;;;5.20;99.90;;;;;;5086816;28;20225;-84
2022/01/23 09:51:15;;;;;;;10.00;9.70;;;5.10;99.90;;;;;;5085884;28;20238;-84
2022/01/23 09:53:57;;;;;;;9.70;9.40;;;5.20;99.90;;;;;;5086654;28;20234;-84
2022/01/23 09:56:30;;;;;;;9.60;9.30;;;5.30;99.90;;;;;;5086111;28;20223;-84
2022/01/23 09:58:59;;;;;;;9.50;9.20;;;5.40;99.90;;;;;;5085267;28;20226;-86
2022/01/23 10:01:43;;;;;;;9.40;9.10;;;5.40;99.90;;;;;;5083273;28;20234;-84
2022/01/23 10:04:13;;;;;;;9.40;9.10;;;5.40;99.90;;;;;;5092165;28;20286;-84
2022/01/23 10:06:42;;;;;;;9.50;9.20;;;5.30;99.90;;;;;;5100704;28;20282;-84
2022/01/23 10:09:16;;;;;;;9.47;9.17;;;5.40;99.90;;;;;;5100433;28;20230;-83
2022/01/23 10:11:44;;;;;;;9.57;9.27;;;5.40;99.90;;;;;;5099529;28;20228;-84
2022/01/23 10:14:12;;;;;;;9.77;9.47;;;5.20;99.90;;;;;;5097041;28;20226;-84
2022/01/23 10:16:43;;;;;;;9.80;9.50;;;5.20;99.90;;;;;;5082885;28;20230;-84
2022/01/23 10:19:26;;;;;;;9.63;9.33;;;5.20;99.90;;;;;;5083806;28;20230;-86
2022/01/23 10:25:10;;;;;;;9.90;9.60;;;5.30;99.90;;;;;;5075597;28;20241;-85
2022/01/23 10:35:25;;;;;;;9.50;9.20;;;5.50;99.90;;;;;;5052534;28;20234;-84
2022/01/23 10:41:29;;;;;;;9.50;9.20;;;5.70;99.90;;;;;;5073733;28;20230;-83
2022/01/23 10:51:36;;;;;;;9.30;9.00;;;6.00;99.90;;;;;;5062340;22;20331;-85
2022/01/23 11:21:03;;;;;;;9.30;9.00;;;6.40;99.90;;;;;;5119935;28;20229;-86
2022/01/23 11:24:19;;;;;;;;;;;;;;;;;;;;;
2022/01/23 11:30:48;;;;;;;9.53;9.23;;;6.70;99.90;;;;;;5094650;28;20237;-84
2022/01/23 11:33:24;;;;;;;9.33;9.03;;;6.90;99.90;;;;;;5100232;28;20275;-85
2022/01/23 11:36:00;;;;;;;9.30;9.00;;;6.90;99.90;;;;;;5100762;28;20233;-83
2022/01/23 12:18:25;;;;;;;9.30;9.00;;;6.70;99.90;;;;;;4879705;29;20241;-84
2022/01/23 12:31:26;;;;;;;8.83;8.63;;;6.90;99.90;;;;;;5023366;28;20314;-84
2022/01/23 12:34:00;;;;;;;8.60;8.40;;;6.90;99.90;;;;;;5014873;28;20400;-84
2022/01/23 12:36:31;;;;;;;8.67;8.47;;;6.90;99.90;;;;;;5070263;28;20237;-83
2022/01/23 12:39:17;;;;;;;8.70;8.50;;;6.90;99.90;;;;;;5087824;28;20237;-83
2022/01/23 12:42:00;;;;;;;8.50;8.30;;;7.00;99.90;;;;;;5098007;28;20243;-82
2022/01/23 12:44:37;;;;;;;8.67;8.47;;;6.90;99.90;;;;;;5102144;28;20210;-83
2022/01/23 12:47:07;;;;;;;8.60;8.40;;;6.80;99.90;;;;;;5102584;28;20329;-83
2022/01/23 12:49:38;;;;;;;8.80;8.60;;;6.80;99.90;;;;;;5101742;28;20298;-83
2022/01/23 12:52:19;;;;;;;8.53;8.33;;;6.80;99.90;;;;;;5132388;22;20265;-83
2022/01/23 12:54:59;;;;;;;8.60;8.40;;;6.80;99.90;;;;;;5082507;28;20278;-83
2022/01/23 12:57:37;;;;;;;8.70;8.50;;;6.90;99.90;;;;;;5081649;28;20238;-82
2022/01/23 13:00:16;;;;;;;8.80;8.60;;;6.80;99.90;;;;;;5072732;28;20233;-80
2022/01/23 13:02:47;;;;;;;8.90;8.70;;;7.00;99.90;;;;;;5061289;28;20219;-83
2022/01/23 13:05:22;;;;;;;8.77;8.57;;;6.90;99.90;;;;;;5062907;28;20241;-83
2022/01/23 13:08:05;;;;;;;9.00;8.80;;;6.70;99.90;;;;;;5064119;28;20249;-82
2022/01/23 13:10:54;;;;;;;8.80;8.60;;;6.60;99.90;;;;;;5075828;28;20222;-82
2022/01/23 13:13:35;;;;;;;8.50;8.30;;;6.60;99.90;;;;;;5055808;28;20220;-82
2022/01/23 13:19:33;;;;;;;8.37;8.17;;;6.60;99.90;;;;;;5061554;28;20250;-82
2022/01/23 13:30:32;;;;;;;8.57;8.37;;;6.50;99.90;;;;;;5013451;28;20284;-84
2022/01/23 13:33:09;;;;;;;8.90;8.70;;;6.60;99.90;;;;;;5053550;28;20298;-83
2022/01/23 13:35:43;;;;;;;9.97;9.67;;;6.60;99.90;;;;;;5048242;28;20290;-82
2022/01/23 13:38:33;;;;;;;9.20;8.90;;;6.80;99.90;;;;;;5049533;28;20221;-81
2022/01/23 13:41:09;;;;;;;9.27;8.97;;;6.90;99.90;;;;;;5051240;28;20231;-81
2022/01/23 13:52:44;;;;;;;8.83;8.63;;;7.00;99.90;;;;;;5054223;28;20242;-82
2022/01/23 13:58:32;;;;;;;8.60;8.40;;;7.00;99.90;;;;;;5056520;28;20220;-82
2022/01/23 14:01:15;;;;;;;8.80;8.60;;;6.90;99.90;;;;;;5056823;28;20238;-82
2022/01/23 14:03:49;;;;;;;8.53;8.33;;;6.70;99.90;;;;;;5057132;28;20239;-83
2022/01/23 14:06:18;;;;;;;8.83;8.63;;;6.60;99.90;;;;;;5059011;28;20223;-81
2022/01/23 14:09:05;;;;;;;8.43;8.23;;;6.40;99.90;;;;;;5059932;28;20223;-80
2022/01/23 14:14:23;;;;;;;8.87;8.67;;;6.40;99.90;;;;;;5060102;28;20220;-81
2022/01/23 14:19:38;;;;;;;8.50;8.30;;;6.20;99.90;;;;;;5056074;28;20230;-81
2022/01/23 14:22:08;;;;;;;8.27;8.07;;;6.20;99.90;;;;;;5060124;28;20220;-80
2022/01/23 14:24:48;;;;;;;8.60;8.40;;;6.20;99.90;;;;;;5060612;28;20227;-81
2022/01/23 14:27:23;;;;;;;9.00;8.80;;;6.20;99.90;;;;;;5056336;28;20272;-81
2022/01/23 14:29:55;;;;;;;8.80;8.60;;;6.20;99.90;;;;;;5054626;28;20235;-80
2022/01/23 14:32:31;;;;;;;8.80;8.60;;;6.30;99.90;;;;;;5054143;28;20230;-81
2022/01/23 14:35:11;;;;;;;8.40;8.20;;;6.30;99.90;;;;;;5053266;28;20223;-81
2022/01/23 14:37:39;;;;;;;8.43;8.23;;;6.30;99.90;;;;;;5053286;28;20245;-81
2022/01/23 14:40:26;;;;;;;8.20;8.00;;;6.30;99.90;;;;;;5053227;28;20247;-80
2022/01/23 14:43:18;;;;;;;8.50;8.30;;;6.40;99.90;;;;;;5052151;28;20235;-82
2022/01/23 14:45:54;;;;;;;8.67;8.47;;;6.40;99.90;;;;;;5052929;28;20231;-82
2022/01/23 14:51:34;;;;;;;8.60;8.40;;;6.20;99.90;;;;;;5056842;28;20211;-82
2022/01/23 14:54:06;;;;;;;8.40;8.20;;;6.30;99.90;;;;;;5051621;28;20257;-81
2022/01/23 14:56:38;;;;;;;8.60;8.40;;;6.40;99.90;;;;;;5051551;28;20235;-81
2022/01/23 14:59:14;;;;;;;8.60;8.40;;;6.50;99.90;;;;;;5051393;28;20231;-81
2022/01/23 15:01:44;;;;;;;8.20;8.00;;;6.50;99.90;;;;;;5058405;28;20327;-82
2022/01/23 15:04:15;;;;;;;8.70;8.50;;;6.50;99.90;;;;;;5057145;28;20236;-81
2022/01/23 15:09:29;;;;;;;8.30;8.10;;;6.50;99.90;;;;;;5046492;28;20255;-81
2022/01/23 15:11:58;;;;;;;8.40;8.20;;;6.50;99.90;;;;;;5050002;28;20266;-81
2022/01/23 15:14:37;;;;;;;8.40;8.20;;;6.40;99.90;;;;;;5049329;28;20216;-82
2022/01/23 15:17:06;;;;;;;8.37;8.17;;;6.30;99.90;;;;;;5049265;28;20249;-82
2022/01/23 15:19:36;;;;;;;8.30;8.10;;;6.10;99.90;;;;;;5049900;28;20232;-82
2022/01/23 15:22:05;;;;;;;8.30;8.10;;;6.10;99.90;;;;;;5049506;28;20232;-82
2022/01/23 15:24:35;;;;;;;8.70;8.50;;;6.00;99.90;;;;;;5050089;28;20304;-82
2022/01/23 15:27:04;;;;;;;8.37;8.17;;;6.00;99.90;;;;;;5050161;28;20241;-82
2022/01/23 15:32:20;;;;;;;8.50;8.30;;;6.00;99.90;;;;;;5051435;28;20243;-82
2022/01/23 15:34:58;;;;;;;8.40;8.20;;;6.00;99.90;;;;;;5050287;28;20231;-84
2022/01/23 15:37:27;;;;;;;8.30;8.10;;;6.00;99.90;;;;;;5047354;28;20321;-82
2022/01/23 15:40:00;;;;;;;8.30;8.10;;;6.10;99.90;;;;;;5056845;28;20227;-83
2022/01/23 15:42:39;;;;;;;8.47;8.27;;;6.00;99.90;;;;;;5056151;28;20334;-82
2022/01/23 15:45:21;;;;;;;8.50;8.30;;;5.90;99.90;;;;;;5067788;28;20219;-82
2022/01/23 15:47:59;;;;;;;8.47;8.27;;;5.90;99.90;;;;;;5067412;28;20266;-81
2022/01/23 15:50:29;;;;;;;8.30;8.10;;;5.80;99.90;;;;;;5072228;28;20252;-84
2022/01/23 15:53:17;;;;;;;8.53;8.33;;;5.70;99.90;;;;;;5042833;28;20341;-87
2022/01/23 16:03:01;;;;;;;8.30;8.10;;;5.70;99.90;;;;;;5011443;28;20235;-83
2022/01/23 16:05:45;;;;;;;8.00;7.80;;;5.70;99.90;;;;;;5046772;28;20340;-84
2022/01/23 16:08:21;;;;;;;8.20;8.00;;;5.60;99.90;;;;;;5046773;28;20224;-83
2022/01/23 16:10:50;;;;;;;7.90;7.70;;;5.70;99.90;;;;;;5047016;28;20241;-83
2022/01/23 16:13:21;;;;;;;9.20;8.90;;;5.80;99.90;;;;;;5043095;28;20574;-81
2022/01/23 16:15:54;;;;;;;8.47;8.27;;;5.80;99.90;;;;;;5043979;28;20224;-82
2022/01/23 16:18:44;;;;;;;8.40;8.20;;;5.90;99.90;;;;;;5044173;28;20243;-81
2022/01/23 16:21:22;;;;;;;8.30;8.10;;;5.90;99.90;;;;;;5045684;28;20240;-82
2022/01/23 16:24:04;;;;;;;8.50;8.30;;;5.90;99.90;;;;;;5045097;28;20239;-83
2022/01/23 16:26:40;;;;;;;8.30;8.10;;;5.90;99.90;;;;;;5044829;28;20255;-81
2022/01/23 16:29:09;;;;;;;8.20;8.00;;;5.80;99.90;;;;;;5046057;28;20213;-82
2022/01/23 16:31:37;;;;;;;8.60;8.40;;;5.50;99.90;;;;;;5043607;28;20322;-80
2022/01/23 16:34:08;;;;;;;8.40;8.20;;;5.40;99.90;;;;;;5043710;28;20235;-81
2022/01/23 16:36:44;;;;;;;8.30;8.10;;;5.40;99.90;;;;;;5044834;28;20224;-80
2022/01/23 16:39:15;;;;;;;8.30;8.10;;;5.40;99.90;;;;;;5039840;28;20741;-80
2022/01/23 16:41:44;;;;;;;8.40;8.20;;;5.40;99.90;;;;;;5057065;28;20235;-80
2022/01/23 16:44:21;;;;;;;8.30;8.10;;;5.40;99.90;;;;;;5064074;28;20270;-80
2022/01/23 16:46:49;;;;;;;8.33;8.13;;;5.30;99.90;;;;;;5069769;28;20229;-80
2022/01/23 16:49:21;;;;;;;8.37;8.17;;;5.40;99.90;;;;;;5058396;28;20231;-80
2022/01/23 16:51:49;;;;;;;8.23;8.03;;;5.40;99.90;;;;;;5050673;28;20243;-80
2022/01/23 16:54:18;;;;;;;8.07;7.87;;;5.40;99.90;;;;;;5048620;28;20243;-80
2022/01/23 16:56:46;;;;;;;8.23;8.03;;;5.40;99.90;;;;;;5056097;28;20240;-80
2022/01/23 16:59:15;;;;;;;8.40;8.20;;;5.20;99.90;;;;;;5047695;28;20234;-80
2022/01/23 17:01:57;;;;;;;8.00;7.80;;;5.20;99.90;;;;;;5046363;28;20249;-80
2022/01/23 17:04:32;;;;;;;8.23;8.03;;;5.10;99.90;;;;;;5046336;28;20239;-80
2022/01/23 17:07:05;;;;;;;8.60;8.40;;;5.10;99.90;;;;;;5046007;28;20286;-80
2022/01/23 17:09:33;;;;;;;8.70;8.50;;;5.10;99.90;;;;;;5044588;28;20247;-80
2022/01/23 17:12:01;;;;;;;8.40;8.20;;;5.10;99.90;;;;;;5044920;28;20236;-80
2022/01/23 17:17:29;;;;;;;8.30;8.10;;;5.10;99.90;;;;;;5021615;28;20228;-81
2022/01/23 17:19:59;;;;;;;8.37;8.17;;;5.20;99.90;;;;;;5044650;28;20312;-82
2022/01/23 17:22:27;;;;;;;8.20;8.00;;;5.20;99.90;;;;;;5041018;28;20239;-81
2022/01/23 17:24:55;;;;;;;8.30;8.10;;;5.30;99.90;;;;;;5041344;28;20231;-81
2022/01/23 17:27:23;;;;;;;8.70;8.50;;;5.20;99.90;;;;;;5042347;28;20260;-81
2022/01/23 17:29:52;;;;;;;8.50;8.30;;;5.20;99.90;;;;;;5045578;28;20227;-81
2022/01/23 17:32:21;;;;;;;8.60;8.40;;;5.20;99.90;;;;;;5046065;28;20289;-80
2022/01/23 17:35:05;;;;;;;8.70;8.50;;;5.20;99.90;;;;;;5047521;28;20246;-81
2022/01/23 17:37:42;;;;;;;8.40;8.20;;;5.30;99.90;;;;;;5047374;28;20238;-81
2022/01/23 17:40:13;;;;;;;8.37;8.17;;;5.30;99.90;;;;;;5046256;28;20231;-82
2022/01/23 17:42:42;;;;;;;8.40;8.20;;;5.40;99.90;;;;;;5054414;28;20289;-81
2022/01/23 17:45:17;;;;;;;8.50;8.30;;;5.30;99.90;;;;;;5060514;28;20285;-81
2022/01/23 17:48:17;;;;;;;8.50;8.30;;;5.30;99.90;;;;;;5055491;28;20231;-82
2022/01/23 17:51:17;;;;;;;8.60;8.40;;;5.30;99.90;;;;;;5044861;28;20731;-79
2022/01/23 17:53:48;;;;;;;8.77;8.57;;;5.30;99.90;;;;;;5053723;28;20265;-82
2022/01/23 17:56:16;;;;;;;9.13;8.83;;;5.40;99.90;;;;;;5052046;28;20231;-83
2022/01/23 17:58:44;;;;;;;8.70;8.50;;;5.40;99.90;;;;;;5047537;28;20231;-80